Nearby METAR Reports

 

KAIG - Antigo/Langlade, Wisconsin, USA
Distance from station: SSW 28mi, 46km
Updated: 12/17/2017 11:35am
Mist, Overcast
Mist, Overcast
 Wind from ESE
Wind: ESE 7 mph , 11 km/h
Temperature: 23°F , -5°C
Wind Chill: 15°F , -9°C
Dew Point: 23°F , -5°C
Humidity: 100%
Barometer: 30.05 inHg , 1017.6 hPa
Summary: Mist
Clouds: Overcast
Visibility: 1 mile , 2 km
Cloud details: Overcast 200 ft
2017/12/17 17:35 KAIG 171735Z AUTO 12006KT 1SM BR OVC002 M05/M05 A3005 RMK AO2 T10461046
KRHI - Rhinelander, Wisconsin, USA
Distance from station: WNW 32mi, 51km
Updated: 12/17/2017 11:23am
Mist, Overcast
Mist, Overcast
 Wind from S
Wind: S 5 mph , 7 km/h
Temperature: 25°F , -4°C
Wind Chill: 19°F , -7°C
Dew Point: 25°F , -4°C
Humidity: 100%
Barometer: 30.05 inHg , 1017.6 hPa
Summary: Mist
Clouds: Overcast
Visibility: 3 miles , 5 km
Cloud details: Overcast 300 ft
2017/12/17 17:23 KRHI 171723Z AUTO 18004KT 3SM BR OVC003 M04/M04 A3005 RMK AO2 T10391044
 
KEGV - Eagle River, Wisconsin, USA
Distance from station: NW 35mi, 57km
Updated: 12/17/2017 11:35am
Mist, Overcast
Mist, Overcast
 Wind from S
Wind: S 3 mph , 6 km/h
Temperature: 23°F , -5°C
Dew Point: 23°F , -5°C
Humidity: 100%
Barometer: 30.04 inHg , 1017.3 hPa
Summary: Mist
Clouds: Overcast
Visibility: 2 1/2 miles , 2 km
Cloud details: Overcast 300 ft
2017/12/17 17:35 KEGV 171735Z AUTO 17003KT 2 1/2SM BR OVC003 M05/M05 A3004 RMK AO2 VIS 1 3/4V4 T10541054
KIMT - Iron Mountain, Michigan, USA
Distance from station: ENE 41mi, 66km
Updated: 12/17/2017 10:54am
Overcast
Overcast
 Wind from calm
Wind: Calm
Temperature: 21°F , -6°C
Dew Point: 18°F , -8°C
Humidity: 86%
Barometer: 30.09 inHg , 1019 hPa
Clouds: Overcast
Visibility: 10 miles , 16 km
Cloud details: Overcast 900 ft
2017/12/17 16:54 KIMT 171654Z AUTO 00000KT 10SM OVC009 M06/M08 A3009 RMK AO2 SLP214 T10611078
 
KLNL - Land O Lakes, Wisconsin, USA
Distance from station: NNW 47mi, 76km
Updated: 12/17/2017 11:35am
Overcast
Overcast
 Wind from S
Wind: S 3 mph , 6 km/h
Temperature: 23°F , -5°C
Dew Point: 23°F , -5°C
Humidity: 100%
Barometer: 30.06 inHg , 1017.9 hPa
Clouds: Overcast
Visibility: 10 miles , 16 km
Cloud details: Overcast 400 ft
2017/12/17 17:35 KLNL 171735Z AUTO 19003KT 10SM OVC004 M05/M05 A3006 RMK AO2 T10461051
KRRL - Merrill, Wisconsin, USA
Distance from station: WSW 47mi, 76km
Updated: 12/17/2017 11:35am
Mist, Overcast
Mist, Overcast
 Wind from SSE
Wind: SSE 3 mph , 6 km/h
Temperature: 27°F , -3°C
Dew Point: 25°F , -4°C
Humidity: 93%
Barometer: 30.06 inHg , 1017.9 hPa
Summary: Mist
Clouds: Overcast
Visibility: 3 miles , 5 km
Cloud details: Overcast 400 ft
2017/12/17 17:35 KRRL 171735Z AUTO 15003KT 3SM BR OVC004 M03/M04 A3006 RMK AO2 T10351040
 
KTKV - Tomahawk Regnl, Wisconsin, USA
Distance from station: W 47mi, 76km
Updated: 12/17/2017 11:35am
Mist, Overcast
Mist, Overcast
 Wind from calm
Wind: Calm
Temperature: 25°F , -4°C
Dew Point: 23°F , -5°C
Humidity: 93%
Barometer: 30.06 inHg , 1017.9 hPa
Summary: Mist
Clouds: Overcast
Visibility: 3 miles , 5 km
Cloud details: Overcast 400 ft
2017/12/17 17:35 KTKV 171735Z AUTO 00000KT 3SM BR OVC004 M04/M05 A3006 RMK AO2 T10411050
KARV - Minocqua/Woodruf, Wisconsin, USA
Distance from station: WNW 50mi, 81km
Updated: 12/17/2017 11:35am
Mist, Overcast
Mist, Overcast
 Wind from S
Wind: S 5 mph , 7 km/h
Temperature: 25°F , -4°C
Wind Chill: 19°F , -7°C
Dew Point: 23°F , -5°C
Humidity: 93%
Barometer: 30.04 inHg , 1017.3 hPa
Summary: Mist
Clouds: Overcast
Visibility: 1 3/4 miles , 5 km
Cloud details: Overcast 400 ft
2017/12/17 17:35 KARV 171735Z AUTO 18004KT 1 3/4SM BR OVC004 M04/M05 A3004 RMK AO2 VIS 1 1/4V2 1/2 T10431052